sensor_id;sensor_type;location;lat;lon;timestamp;temperature;humidity
68248;SHT30;55064;49.636;12.164;2023-07-24T00:01:21;17.88;67.83
68248;SHT30;55064;49.636;12.164;2023-07-24T00:03:46;18.02;66.67
68248;SHT30;55064;49.636;12.164;2023-07-24T00:06:11;18.21;66.32
68248;SHT30;55064;49.636;12.164;2023-07-24T00:08:37;18.26;68.54
68248;SHT30;55064;49.636;12.164;2023-07-24T00:11:07;18.36;66.44
68248;SHT30;55064;49.636;12.164;2023-07-24T00:13:32;18.40;66.41
68248;SHT30;55064;49.636;12.164;2023-07-24T00:15:57;18.36;67.14
68248;SHT30;55064;49.636;12.164;2023-07-24T00:18:25;18.22;68.11
68248;SHT30;55064;49.636;12.164;2023-07-24T00:20:53;18.10;68.47
68248;SHT30;55064;49.636;12.164;2023-07-24T00:23:18;17.77;69.65
68248;SHT30;55064;49.636;12.164;2023-07-24T00:25:46;17.84;69.62
68248;SHT30;55064;49.636;12.164;2023-07-24T00:28:12;17.97;70.43
68248;SHT30;55064;49.636;12.164;2023-07-24T00:30:37;18.10;71.93
68248;SHT30;55064;49.636;12.164;2023-07-24T00:33:05;18.09;71.55
68248;SHT30;55064;49.636;12.164;2023-07-24T00:35:33;18.18;71.40
68248;SHT30;55064;49.636;12.164;2023-07-24T00:38:01;18.19;70.88
68248;SHT30;55064;49.636;12.164;2023-07-24T00:40:27;18.18;72.86
68248;SHT30;55064;49.636;12.164;2023-07-24T00:42:55;18.09;70.47
68248;SHT30;55064;49.636;12.164;2023-07-24T00:45:21;18.02;72.13
68248;SHT30;55064;49.636;12.164;2023-07-24T00:47:48;18.01;72.18
68248;SHT30;55064;49.636;12.164;2023-07-24T00:50:16;18.02;72.75
68248;SHT30;55064;49.636;12.164;2023-07-24T00:52:42;17.97;71.63
68248;SHT30;55064;49.636;12.164;2023-07-24T00:55:09;17.73;70.89
68248;SHT30;55064;49.636;12.164;2023-07-24T00:57:36;17.71;71.38
68248;SHT30;55064;49.636;12.164;2023-07-24T01:00:05;17.55;73.53
68248;SHT30;55064;49.636;12.164;2023-07-24T01:02:33;17.63;73.43
68248;SHT30;55064;49.636;12.164;2023-07-24T01:04:59;17.55;74.54
68248;SHT30;55064;49.636;12.164;2023-07-24T01:07:25;17.54;75.20
68248;SHT30;55064;49.636;12.164;2023-07-24T01:09:50;17.37;76.02
68248;SHT30;55064;49.636;12.164;2023-07-24T01:12:43;17.22;77.66
68248;SHT30;55064;49.636;12.164;2023-07-24T01:17:54;17.16;79.04
68248;SHT30;55064;49.636;12.164;2023-07-24T01:20:22;16.99;80.37
68248;SHT30;55064;49.636;12.164;2023-07-24T01:25:58;16.96;84.94
68248;SHT30;55064;49.636;12.164;2023-07-24T01:28:25;16.79;85.14
68248;SHT30;55064;49.636;12.164;2023-07-24T01:30:50;16.67;85.80
68248;SHT30;55064;49.636;12.164;2023-07-24T01:33:16;16.68;86.63
68248;SHT30;55064;49.636;12.164;2023-07-24T01:35:43;16.64;84.99
68248;SHT30;55064;49.636;12.164;2023-07-24T01:38:10;16.61;86.76
68248;SHT30;55064;49.636;12.164;2023-07-24T01:40:39;16.50;85.15
68248;SHT30;55064;49.636;12.164;2023-07-24T01:43:06;16.36;86.33
68248;SHT30;55064;49.636;12.164;2023-07-24T01:45:36;16.47;85.97
68248;SHT30;55064;49.636;12.164;2023-07-24T01:48:03;16.39;85.63
68248;SHT30;55064;49.636;12.164;2023-07-24T01:50:34;16.67;83.37
68248;SHT30;55064;49.636;12.164;2023-07-24T01:53:02;16.81;83.16
68248;SHT30;55064;49.636;12.164;2023-07-24T01:55:29;16.79;83.26
68248;SHT30;55064;49.636;12.164;2023-07-24T01:57:54;16.70;83.91
68248;SHT30;55064;49.636;12.164;2023-07-24T02:00:19;16.60;86.40
68248;SHT30;55064;49.636;12.164;2023-07-24T02:02:45;16.58;87.04
68248;SHT30;55064;49.636;12.164;2023-07-24T02:05:10;16.54;86.30
68248;SHT30;55064;49.636;12.164;2023-07-24T02:07:36;16.50;87.39
68248;SHT30;55064;49.636;12.164;2023-07-24T02:10:02;16.30;87.88
68248;SHT30;55064;49.636;12.164;2023-07-24T02:12:28;16.19;88.74
68248;SHT30;55064;49.636;12.164;2023-07-24T02:14:54;16.16;89.29
68248;SHT30;55064;49.636;12.164;2023-07-24T02:17:23;16.05;89.63
68248;SHT30;55064;49.636;12.164;2023-07-24T02:19:49;16.12;89.02
68248;SHT30;55064;49.636;12.164;2023-07-24T02:22:15;16.26;88.63
68248;SHT30;55064;49.636;12.164;2023-07-24T02:24:40;16.27;88.28
68248;SHT30;55064;49.636;12.164;2023-07-24T02:27:06;16.34;88.61
68248;SHT30;55064;49.636;12.164;2023-07-24T02:29:31;16.27;89.17
68248;SHT30;55064;49.636;12.164;2023-07-24T02:31:57;16.30;89.38
68248;SHT30;55064;49.636;12.164;2023-07-24T02:34:23;16.03;89.98
68248;SHT30;55064;49.636;12.164;2023-07-24T02:36:52;16.09;90.05
68248;SHT30;55064;49.636;12.164;2023-07-24T02:39:20;16.05;90.87
68248;SHT30;55064;49.636;12.164;2023-07-24T02:41:47;15.86;91.69
68248;SHT30;55064;49.636;12.164;2023-07-24T02:44:13;15.89;90.25
68248;SHT30;55064;49.636;12.164;2023-07-24T02:46:38;15.95;90.54
68248;SHT30;55064;49.636;12.164;2023-07-24T02:49:03;15.71;90.98
68248;SHT30;55064;49.636;12.164;2023-07-24T02:51:31;15.61;91.84
68248;SHT30;55064;49.636;12.164;2023-07-24T02:53:56;15.62;91.28
68248;SHT30;55064;49.636;12.164;2023-07-24T02:56:22;15.59;91.59
68248;SHT30;55064;49.636;12.164;2023-07-24T02:58:48;15.61;92.05
68248;SHT30;55064;49.636;12.164;2023-07-24T03:01:16;15.68;91.54
68248;SHT30;55064;49.636;12.164;2023-07-24T03:03:47;15.84;90.85
68248;SHT30;55064;49.636;12.164;2023-07-24T03:06:14;15.95;89.18
68248;SHT30;55064;49.636;12.164;2023-07-24T03:08:40;16.09;89.48
68248;SHT30;55064;49.636;12.164;2023-07-24T03:11:05;16.20;89.62
68248;SHT30;55064;49.636;12.164;2023-07-24T03:13:31;16.20;89.10
68248;SHT30;55064;49.636;12.164;2023-07-24T03:15:58;16.30;89.50
68248;SHT30;55064;49.636;12.164;2023-07-24T03:18:23;16.32;89.25
68248;SHT30;55064;49.636;12.164;2023-07-24T03:20:49;16.37;88.60
68248;SHT30;55064;49.636;12.164;2023-07-24T03:23:15;16.36;88.81
68248;SHT30;55064;49.636;12.164;2023-07-24T03:25:40;16.39;87.95
68248;SHT30;55064;49.636;12.164;2023-07-24T03:28:08;16.46;88.90
68248;SHT30;55064;49.636;12.164;2023-07-24T03:30:33;16.49;88.63
68248;SHT30;55064;49.636;12.164;2023-07-24T03:33:01;16.44;88.90
68248;SHT30;55064;49.636;12.164;2023-07-24T03:35:29;16.50;89.51
68248;SHT30;55064;49.636;12.164;2023-07-24T03:37:54;16.49;90.25
68248;SHT30;55064;49.636;12.164;2023-07-24T03:40:21;16.46;90.36
68248;SHT30;55064;49.636;12.164;2023-07-24T03:42:47;16.46;90.11
68248;SHT30;55064;49.636;12.164;2023-07-24T03:45:15;16.43;89.79
68248;SHT30;55064;49.636;12.164;2023-07-24T03:47:40;16.37;89.72
68248;SHT30;55064;49.636;12.164;2023-07-24T03:50:06;16.36;90.01
68248;SHT30;55064;49.636;12.164;2023-07-24T03:52:31;16.26;90.32
68248;SHT30;55064;49.636;12.164;2023-07-24T03:54:58;16.24;89.87
68248;SHT30;55064;49.636;12.164;2023-07-24T03:57:26;16.19;91.45
68248;SHT30;55064;49.636;12.164;2023-07-24T03:59:52;16.15;91.30
68248;SHT30;55064;49.636;12.164;2023-07-24T04:02:18;16.08;91.52
68248;SHT30;55064;49.636;12.164;2023-07-24T04:04:47;15.98;92.28
68248;SHT30;55064;49.636;12.164;2023-07-24T04:07:15;15.95;92.45
68248;SHT30;55064;49.636;12.164;2023-07-24T04:09:40;15.99;92.56
68248;SHT30;55064;49.636;12.164;2023-07-24T04:12:06;16.01;92.28
68248;SHT30;55064;49.636;12.164;2023-07-24T04:14:32;16.12;91.40
68248;SHT30;55064;49.636;12.164;2023-07-24T04:16:57;16.16;91.62
68248;SHT30;55064;49.636;12.164;2023-07-24T04:19:26;16.08;92.51
68248;SHT30;55064;49.636;12.164;2023-07-24T04:21:51;15.99;94.45
68248;SHT30;55064;49.636;12.164;2023-07-24T04:24:19;16.08;93.52
68248;SHT30;55064;49.636;12.164;2023-07-24T04:26:45;16.40;91.95
68248;SHT30;55064;49.636;12.164;2023-07-24T04:29:11;16.44;91.45
68248;SHT30;55064;49.636;12.164;2023-07-24T04:31:40;16.44;91.01
68248;SHT30;55064;49.636;12.164;2023-07-24T04:34:06;16.50;91.53
68248;SHT30;55064;49.636;12.164;2023-07-24T04:36:31;16.27;92.72
68248;SHT30;55064;49.636;12.164;2023-07-24T04:38:57;16.22;93.58
68248;SHT30;55064;49.636;12.164;2023-07-24T04:41:23;16.27;92.80
68248;SHT30;55064;49.636;12.164;2023-07-24T04:43:49;16.36;93.17
68248;SHT30;55064;49.636;12.164;2023-07-24T04:46:14;16.44;93.29
68248;SHT30;55064;49.636;12.164;2023-07-24T04:48:42;16.54;92.87
68248;SHT30;55064;49.636;12.164;2023-07-24T04:51:07;16.56;92.60
68248;SHT30;55064;49.636;12.164;2023-07-24T04:53:33;16.51;92.76
68248;SHT30;55064;49.636;12.164;2023-07-24T04:55:59;16.47;92.12
68248;SHT30;55064;49.636;12.164;2023-07-24T04:58:24;16.53;91.94
68248;SHT30;55064;49.636;12.164;2023-07-24T05:00:51;16.40;92.86
68248;SHT30;55064;49.636;12.164;2023-07-24T05:03:16;16.29;93.67
68248;SHT30;55064;49.636;12.164;2023-07-24T05:05:42;15.99;95.32
68248;SHT30;55064;49.636;12.164;2023-07-24T05:08:07;15.95;95.68
68248;SHT30;55064;49.636;12.164;2023-07-24T05:10:36;16.09;94.03
68248;SHT30;55064;49.636;12.164;2023-07-24T05:13:02;16.23;94.51
68248;SHT30;55064;49.636;12.164;2023-07-24T05:15:29;16.24;94.16
68248;SHT30;55064;49.636;12.164;2023-07-24T05:17:54;16.33;92.78
68248;SHT30;55064;49.636;12.164;2023-07-24T05:20:19;16.58;91.19
68248;SHT30;55064;49.636;12.164;2023-07-24T05:22:47;16.79;90.89
68248;SHT30;55064;49.636;12.164;2023-07-24T05:25:15;17.33;87.38
68248;SHT30;55064;49.636;12.164;2023-07-24T05:27:40;17.61;87.54
68248;SHT30;55064;49.636;12.164;2023-07-24T05:30:10;17.95;86.54
68248;SHT30;55064;49.636;12.164;2023-07-24T05:32:36;18.19;86.00
68248;SHT30;55064;49.636;12.164;2023-07-24T05:35:03;18.36;84.90
68248;SHT30;55064;49.636;12.164;2023-07-24T05:37:29;17.97;84.48
68248;SHT30;55064;49.636;12.164;2023-07-24T05:39:59;17.84;85.68
68248;SHT30;55064;49.636;12.164;2023-07-24T05:42:24;18.01;86.50
68248;SHT30;55064;49.636;12.164;2023-07-24T05:44:50;17.95;85.84
68248;SHT30;55064;49.636;12.164;2023-07-24T05:47:16;18.08;86.44
68248;SHT30;55064;49.636;12.164;2023-07-24T05:49:43;18.10;85.96
68248;SHT30;55064;49.636;12.164;2023-07-24T05:52:11;18.08;86.16
68248;SHT30;55064;49.636;12.164;2023-07-24T05:54:36;18.15;86.11
68248;SHT30;55064;49.636;12.164;2023-07-24T05:57:01;18.36;86.17
68248;SHT30;55064;49.636;12.164;2023-07-24T05:59:28;18.37;86.89
68248;SHT30;55064;49.636;12.164;2023-07-24T06:01:53;18.24;86.25
68248;SHT30;55064;49.636;12.164;2023-07-24T06:04:19;18.36;86.00
68248;SHT30;55064;49.636;12.164;2023-07-24T06:06:45;18.40;85.70
68248;SHT30;55064;49.636;12.164;2023-07-24T06:09:10;18.61;86.18
68248;SHT30;55064;49.636;12.164;2023-07-24T06:11:35;18.73;86.65
68248;SHT30;55064;49.636;12.164;2023-07-24T06:14:01;18.70;87.68
68248;SHT30;55064;49.636;12.164;2023-07-24T06:16:26;18.42;87.86
68248;SHT30;55064;49.636;12.164;2023-07-24T06:18:54;18.28;88.17
68248;SHT30;55064;49.636;12.164;2023-07-24T06:21:19;18.18;87.65
68248;SHT30;55064;49.636;12.164;2023-07-24T06:23:47;18.12;86.01
68248;SHT30;55064;49.636;12.164;2023-07-24T06:26:14;18.16;85.97
68248;SHT30;55064;49.636;12.164;2023-07-24T06:28:40;18.29;86.33
68248;SHT30;55064;49.636;12.164;2023-07-24T06:31:05;18.46;85.51
68248;SHT30;55064;49.636;12.164;2023-07-24T06:33:30;18.47;84.87
68248;SHT30;55064;49.636;12.164;2023-07-24T06:35:56;18.67;83.06
68248;SHT30;55064;49.636;12.164;2023-07-24T06:38:24;18.78;83.46
68248;SHT30;55064;49.636;12.164;2023-07-24T06:40:50;18.95;83.81
68248;SHT30;55064;49.636;12.164;2023-07-24T06:43:17;19.07;84.30
68248;SHT30;55064;49.636;12.164;2023-07-24T06:45:43;19.30;82.19
68248;SHT30;55064;49.636;12.164;2023-07-24T06:48:08;19.37;81.05
68248;SHT30;55064;49.636;12.164;2023-07-24T06:50:36;19.32;80.22
68248;SHT30;55064;49.636;12.164;2023-07-24T06:53:01;19.49;80.66
68248;SHT30;55064;49.636;12.164;2023-07-24T06:55:29;19.52;80.12
68248;SHT30;55064;49.636;12.164;2023-07-24T06:57:54;19.64;80.35
68248;SHT30;55064;49.636;12.164;2023-07-24T07:00:20;19.74;79.29
68248;SHT30;55064;49.636;12.164;2023-07-24T07:02:46;19.84;79.85
68248;SHT30;55064;49.636;12.164;2023-07-24T07:05:11;19.87;79.77
68248;SHT30;55064;49.636;12.164;2023-07-24T07:07:36;19.98;79.96
68248;SHT30;55064;49.636;12.164;2023-07-24T07:10:02;19.94;78.90
68248;SHT30;55064;49.636;12.164;2023-07-24T07:12:30;20.02;78.70
68248;SHT30;55064;49.636;12.164;2023-07-24T07:14:55;20.14;79.14
68248;SHT30;55064;49.636;12.164;2023-07-24T07:17:20;20.28;78.53
68248;SHT30;55064;49.636;12.164;2023-07-24T07:19:46;20.29;77.30
68248;SHT30;55064;49.636;12.164;2023-07-24T07:22:11;20.53;78.44
68248;SHT30;55064;49.636;12.164;2023-07-24T07:24:36;20.73;76.66
68248;SHT30;55064;49.636;12.164;2023-07-24T07:27:02;20.60;75.56
68248;SHT30;55064;49.636;12.164;2023-07-24T07:29:30;20.77;75.14
68248;SHT30;55064;49.636;12.164;2023-07-24T07:31:56;20.83;73.54
68248;SHT30;55064;49.636;12.164;2023-07-24T07:34:22;20.80;75.00
68248;SHT30;55064;49.636;12.164;2023-07-24T07:36:47;20.95;73.12
68248;SHT30;55064;49.636;12.164;2023-07-24T07:39:12;21.05;72.04
68248;SHT30;55064;49.636;12.164;2023-07-24T07:41:41;20.90;72.46
68248;SHT30;55064;49.636;12.164;2023-07-24T07:44:06;21.24;72.40
68248;SHT30;55064;49.636;12.164;2023-07-24T07:46:32;21.45;71.95
68248;SHT30;55064;49.636;12.164;2023-07-24T07:48:57;21.56;71.45
68248;SHT30;55064;49.636;12.164;2023-07-24T07:51:22;21.72;70.79
68248;SHT30;55064;49.636;12.164;2023-07-24T07:53:51;21.67;71.00
68248;SHT30;55064;49.636;12.164;2023-07-24T07:56:17;21.93;70.92
68248;SHT30;55064;49.636;12.164;2023-07-24T07:58:42;21.89;70.95
68248;SHT30;55064;49.636;12.164;2023-07-24T08:01:08;21.89;70.90
68248;SHT30;55064;49.636;12.164;2023-07-24T08:03:36;21.90;70.94
68248;SHT30;55064;49.636;12.164;2023-07-24T08:06:06;22.05;70.67
68248;SHT30;55064;49.636;12.164;2023-07-24T08:08:34;22.15;70.85
68248;SHT30;55064;49.636;12.164;2023-07-24T08:11:06;22.18;71.27
68248;SHT30;55064;49.636;12.164;2023-07-24T08:13:32;22.24;70.76
68248;SHT30;55064;49.636;12.164;2023-07-24T08:15:58;22.34;70.80
68248;SHT30;55064;49.636;12.164;2023-07-24T08:18:29;22.49;70.09
68248;SHT30;55064;49.636;12.164;2023-07-24T08:20:54;22.20;68.19
68248;SHT30;55064;49.636;12.164;2023-07-24T08:23:22;21.98;68.31
68248;SHT30;55064;49.636;12.164;2023-07-24T08:25:53;22.12;68.14
68248;SHT30;55064;49.636;12.164;2023-07-24T08:28:19;22.17;68.00
68248;SHT30;55064;49.636;12.164;2023-07-24T08:30:45;22.27;67.61
68248;SHT30;55064;49.636;12.164;2023-07-24T08:33:12;22.31;66.77
68248;SHT30;55064;49.636;12.164;2023-07-24T08:35:37;22.34;65.85
68248;SHT30;55064;49.636;12.164;2023-07-24T08:38:03;22.42;65.82
68248;SHT30;55064;49.636;12.164;2023-07-24T08:40:28;22.41;65.66
68248;SHT30;55064;49.636;12.164;2023-07-24T08:42:54;22.48;65.83
68248;SHT30;55064;49.636;12.164;2023-07-24T08:45:20;22.58;65.68
68248;SHT30;55064;49.636;12.164;2023-07-24T08:47:45;22.60;65.69
68248;SHT30;55064;49.636;12.164;2023-07-24T08:50:11;22.49;64.72
68248;SHT30;55064;49.636;12.164;2023-07-24T08:52:40;22.58;63.50
68248;SHT30;55064;49.636;12.164;2023-07-24T08:55:07;22.76;62.84
68248;SHT30;55064;49.636;12.164;2023-07-24T08:57:36;22.85;62.00
68248;SHT30;55064;49.636;12.164;2023-07-24T09:00:03;22.83;62.15
68248;SHT30;55064;49.636;12.164;2023-07-24T09:02:33;22.86;61.97
68248;SHT30;55064;49.636;12.164;2023-07-24T09:04:59;22.85;62.51
68248;SHT30;55064;49.636;12.164;2023-07-24T09:07:30;23.00;61.86
68248;SHT30;55064;49.636;12.164;2023-07-24T09:09:55;23.10;61.52
68248;SHT30;55064;49.636;12.164;2023-07-24T09:12:22;23.04;61.26
68248;SHT30;55064;49.636;12.164;2023-07-24T09:15:00;22.90;61.92
68248;SHT30;55064;49.636;12.164;2023-07-24T09:17:26;22.87;62.34
68248;SHT30;55064;49.636;12.164;2023-07-24T09:19:58;22.82;62.55
68248;SHT30;55064;49.636;12.164;2023-07-24T09:22:23;22.86;62.50
68248;SHT30;55064;49.636;12.164;2023-07-24T09:24:53;22.87;62.95
68248;SHT30;55064;49.636;12.164;2023-07-24T09:27:25;22.90;62.69
68248;SHT30;55064;49.636;12.164;2023-07-24T09:29:53;22.90;63.03
68248;SHT30;55064;49.636;12.164;2023-07-24T09:32:26;22.86;63.07
68248;SHT30;55064;49.636;12.164;2023-07-24T09:34:52;22.93;63.68
68248;SHT30;55064;49.636;12.164;2023-07-24T09:37:30;22.92;63.61
68248;SHT30;55064;49.636;12.164;2023-07-24T09:39:56;22.94;63.92
68248;SHT30;55064;49.636;12.164;2023-07-24T09:42:35;23.00;63.89
68248;SHT30;55064;49.636;12.164;2023-07-24T09:45:01;23.03;64.49
68248;SHT30;55064;49.636;12.164;2023-07-24T09:47:27;22.89;64.52
68248;SHT30;55064;49.636;12.164;2023-07-24T09:49:52;22.89;65.04
68248;SHT30;55064;49.636;12.164;2023-07-24T09:52:23;22.90;65.24
68248;SHT30;55064;49.636;12.164;2023-07-24T09:57:35;22.97;65.97
68248;SHT30;55064;49.636;12.164;2023-07-24T10:00:01;23.18;65.99
68248;SHT30;55064;49.636;12.164;2023-07-24T10:02:28;23.42;65.75
68248;SHT30;55064;49.636;12.164;2023-07-24T10:04:54;23.62;65.69
68248;SHT30;55064;49.636;12.164;2023-07-24T10:07:20;23.92;64.84
68248;SHT30;55064;49.636;12.164;2023-07-24T10:09:48;24.09;64.29
68248;SHT30;55064;49.636;12.164;2023-07-24T10:12:18;23.73;64.95
68248;SHT30;55064;49.636;12.164;2023-07-24T10:14:45;23.87;65.16
68248;SHT30;55064;49.636;12.164;2023-07-24T10:17:11;24.59;63.71
68248;SHT30;55064;49.636;12.164;2023-07-24T10:19:39;24.90;62.62
68248;SHT30;55064;49.636;12.164;2023-07-24T10:22:05;24.54;63.10
68248;SHT30;55064;49.636;12.164;2023-07-24T10:24:30;24.57;63.64
68248;SHT30;55064;49.636;12.164;2023-07-24T10:26:59;24.14;63.67
68248;SHT30;55064;49.636;12.164;2023-07-24T10:29:26;24.09;64.91
68248;SHT30;55064;49.636;12.164;2023-07-24T10:31:54;23.85;65.06
68248;SHT30;55064;49.636;12.164;2023-07-24T10:34:20;23.82;65.40
68248;SHT30;55064;49.636;12.164;2023-07-24T10:36:46;23.83;65.58
68248;SHT30;55064;49.636;12.164;2023-07-24T10:39:15;23.72;65.59
68248;SHT30;55064;49.636;12.164;2023-07-24T10:41:46;24.02;65.85
68248;SHT30;55064;49.636;12.164;2023-07-24T10:44:14;24.06;64.77
68248;SHT30;55064;49.636;12.164;2023-07-24T10:46:41;24.09;64.85
68248;SHT30;55064;49.636;12.164;2023-07-24T10:49:07;24.35;64.02
68248;SHT30;55064;49.636;12.164;2023-07-24T10:51:33;24.30;64.13
68248;SHT30;55064;49.636;12.164;2023-07-24T10:54:02;24.37;64.18
68248;SHT30;55064;49.636;12.164;2023-07-24T10:56:28;24.54;63.81
68248;SHT30;55064;49.636;12.164;2023-07-24T10:58:54;24.48;63.27
68248;SHT30;55064;49.636;12.164;2023-07-24T11:01:19;24.65;62.76
68248;SHT30;55064;49.636;12.164;2023-07-24T11:03:45;24.71;62.27
68248;SHT30;55064;49.636;12.164;2023-07-24T11:06:18;24.88;62.39
68248;SHT30;55064;49.636;12.164;2023-07-24T11:08:58;24.93;61.97
68248;SHT30;55064;49.636;12.164;2023-07-24T11:11:31;25.06;62.32
68248;SHT30;55064;49.636;12.164;2023-07-24T11:14:00;25.23;60.22
68248;SHT30;55064;49.636;12.164;2023-07-24T11:16:27;25.28;59.59
68248;SHT30;55064;49.636;12.164;2023-07-24T11:18:52;25.37;59.74
68248;SHT30;55064;49.636;12.164;2023-07-24T11:21:18;25.48;60.59
68248;SHT30;55064;49.636;12.164;2023-07-24T11:23:49;25.38;60.50
68248;SHT30;55064;49.636;12.164;2023-07-24T11:26:15;25.13;60.18
68248;SHT30;55064;49.636;12.164;2023-07-24T11:28:41;25.03;60.69
68248;SHT30;55064;49.636;12.164;2023-07-24T11:31:07;25.02;60.97
68248;SHT30;55064;49.636;12.164;2023-07-24T11:33:33;24.96;61.42
68248;SHT30;55064;49.636;12.164;2023-07-24T11:36:03;24.79;62.30
68248;SHT30;55064;49.636;12.164;2023-07-24T11:38:29;24.76;62.62
68248;SHT30;55064;49.636;12.164;2023-07-24T11:40:56;24.83;62.68
68248;SHT30;55064;49.636;12.164;2023-07-24T11:43:23;24.72;62.96
68248;SHT30;55064;49.636;12.164;2023-07-24T11:45:50;24.78;62.95
68248;SHT30;55064;49.636;12.164;2023-07-24T11:48:19;24.57;64.44
68248;SHT30;55064;49.636;12.164;2023-07-24T11:50:49;24.55;63.90
68248;SHT30;55064;49.636;12.164;2023-07-24T11:55:55;24.31;64.21
68248;SHT30;55064;49.636;12.164;2023-07-24T11:58:21;24.23;64.35
68248;SHT30;55064;49.636;12.164;2023-07-24T12:00:47;24.10;63.49
68248;SHT30;55064;49.636;12.164;2023-07-24T12:03:14;24.13;63.28
68248;SHT30;55064;49.636;12.164;2023-07-24T12:05:42;24.12;63.34
68248;SHT30;55064;49.636;12.164;2023-07-24T12:08:10;24.04;63.65
68248;SHT30;55064;49.636;12.164;2023-07-24T12:10:37;24.17;62.95
68248;SHT30;55064;49.636;12.164;2023-07-24T12:13:09;24.10;63.32
68248;SHT30;55064;49.636;12.164;2023-07-24T12:15:35;24.12;64.21
68248;SHT30;55064;49.636;12.164;2023-07-24T12:18:03;24.04;65.56
68248;SHT30;55064;49.636;12.164;2023-07-24T12:20:29;23.87;66.22
68248;SHT30;55064;49.636;12.164;2023-07-24T12:22:54;23.80;65.70
68248;SHT30;55064;49.636;12.164;2023-07-24T12:25:20;23.70;67.34
68248;SHT30;55064;49.636;12.164;2023-07-24T12:27:48;23.59;67.39
68248;SHT30;55064;49.636;12.164;2023-07-24T12:30:13;23.68;67.09
68248;SHT30;55064;49.636;12.164;2023-07-24T12:32:41;23.62;66.63
68248;SHT30;55064;49.636;12.164;2023-07-24T12:35:11;23.68;67.55
68248;SHT30;55064;49.636;12.164;2023-07-24T12:37:36;23.40;68.62
68248;SHT30;55064;49.636;12.164;2023-07-24T12:40:05;23.37;69.67
68248;SHT30;55064;49.636;12.164;2023-07-24T12:42:31;23.32;70.14
68248;SHT30;55064;49.636;12.164;2023-07-24T12:44:58;23.34;69.50
68248;SHT30;55064;49.636;12.164;2023-07-24T12:47:24;23.07;70.14
68248;SHT30;55064;49.636;12.164;2023-07-24T12:49:49;23.04;70.87
68248;SHT30;55064;49.636;12.164;2023-07-24T12:52:15;23.02;70.75
68248;SHT30;55064;49.636;12.164;2023-07-24T12:54:41;22.80;71.60
68248;SHT30;55064;49.636;12.164;2023-07-24T12:57:06;22.93;72.16
68248;SHT30;55064;49.636;12.164;2023-07-24T12:59:32;22.73;72.57
68248;SHT30;55064;49.636;12.164;2023-07-24T13:01:58;22.75;72.78
68248;SHT30;55064;49.636;12.164;2023-07-24T13:04:27;22.79;73.67
68248;SHT30;55064;49.636;12.164;2023-07-24T13:06:52;22.58;74.45
68248;SHT30;55064;49.636;12.164;2023-07-24T13:09:18;22.53;73.95
68248;SHT30;55064;49.636;12.164;2023-07-24T13:11:43;22.60;73.89
68248;SHT30;55064;49.636;12.164;2023-07-24T13:14:11;22.87;73.38
68248;SHT30;55064;49.636;12.164;2023-07-24T13:16:36;22.83;74.53
68248;SHT30;55064;49.636;12.164;2023-07-24T13:19:02;22.79;73.89
68248;SHT30;55064;49.636;12.164;2023-07-24T13:21:27;22.82;74.36
68248;SHT30;55064;49.636;12.164;2023-07-24T13:23:52;22.93;74.21
68248;SHT30;55064;49.636;12.164;2023-07-24T13:26:19;22.85;74.26
68248;SHT30;55064;49.636;12.164;2023-07-24T13:28:44;22.42;74.33
68248;SHT30;55064;49.636;12.164;2023-07-24T13:33:38;21.96;74.08
68248;SHT30;55064;49.636;12.164;2023-07-24T13:36:05;21.87;74.36
68248;SHT30;55064;49.636;12.164;2023-07-24T13:38:33;21.66;74.10
68248;SHT30;55064;49.636;12.164;2023-07-24T13:41:02;21.73;74.08
68248;SHT30;55064;49.636;12.164;2023-07-24T13:43:29;21.80;73.52
68248;SHT30;55064;49.636;12.164;2023-07-24T13:45:54;21.77;73.06
68248;SHT30;55064;49.636;12.164;2023-07-24T13:48:20;21.67;73.05
68248;SHT30;55064;49.636;12.164;2023-07-24T13:50:46;21.75;72.83
68248;SHT30;55064;49.636;12.164;2023-07-24T13:53:13;21.73;72.81
68248;SHT30;55064;49.636;12.164;2023-07-24T13:55:41;21.79;72.63
68248;SHT30;55064;49.636;12.164;2023-07-24T13:58:07;21.92;71.63
68248;SHT30;55064;49.636;12.164;2023-07-24T14:00:32;22.14;71.22
68248;SHT30;55064;49.636;12.164;2023-07-24T14:02:57;22.35;69.64
68248;SHT30;55064;49.636;12.164;2023-07-24T14:05:23;22.51;69.04
68248;SHT30;55064;49.636;12.164;2023-07-24T14:07:51;22.42;68.94
68248;SHT30;55064;49.636;12.164;2023-07-24T14:10:16;22.56;68.34
68248;SHT30;55064;49.636;12.164;2023-07-24T14:12:42;22.56;68.16
68248;SHT30;55064;49.636;12.164;2023-07-24T14:15:08;22.65;67.96
68248;SHT30;55064;49.636;12.164;2023-07-24T14:17:33;22.90;67.55
68248;SHT30;55064;49.636;12.164;2023-07-24T14:20:00;22.97;67.25
68248;SHT30;55064;49.636;12.164;2023-07-24T14:22:28;22.87;67.61
68248;SHT30;55064;49.636;12.164;2023-07-24T14:24:53;23.13;66.81
68248;SHT30;55064;49.636;12.164;2023-07-24T14:27:21;23.42;66.29
68248;SHT30;55064;49.636;12.164;2023-07-24T14:29:50;23.66;66.44
68248;SHT30;55064;49.636;12.164;2023-07-24T14:32:17;23.75;65.93
68248;SHT30;55064;49.636;12.164;2023-07-24T14:34:47;23.41;66.47
68248;SHT30;55064;49.636;12.164;2023-07-24T14:37:12;23.51;66.88
68248;SHT30;55064;49.636;12.164;2023-07-24T14:39:38;23.66;66.19
68248;SHT30;55064;49.636;12.164;2023-07-24T14:42:03;23.61;66.25
68248;SHT30;55064;49.636;12.164;2023-07-24T14:44:28;24.17;65.64
68248;SHT30;55064;49.636;12.164;2023-07-24T14:46:54;24.57;62.66
68248;SHT30;55064;49.636;12.164;2023-07-24T14:49:19;24.54;60.52
68248;SHT30;55064;49.636;12.164;2023-07-24T14:51:46;24.50;61.36
68248;SHT30;55064;49.636;12.164;2023-07-24T14:54:11;24.23;60.23
68248;SHT30;55064;49.636;12.164;2023-07-24T14:56:36;24.02;60.18
68248;SHT30;55064;49.636;12.164;2023-07-24T14:59:05;24.07;60.33
68248;SHT30;55064;49.636;12.164;2023-07-24T15:01:30;23.96;60.84
68248;SHT30;55064;49.636;12.164;2023-07-24T15:03:58;24.02;59.57
68248;SHT30;55064;49.636;12.164;2023-07-24T15:06:24;24.16;59.95
68248;SHT30;55064;49.636;12.164;2023-07-24T15:08:50;24.41;60.04
68248;SHT30;55064;49.636;12.164;2023-07-24T15:11:23;24.65;59.10
68248;SHT30;55064;49.636;12.164;2023-07-24T15:13:49;25.00;58.86
68248;SHT30;55064;49.636;12.164;2023-07-24T15:16:15;25.05;58.71
68248;SHT30;55064;49.636;12.164;2023-07-24T15:18:40;24.89;57.57
68248;SHT30;55064;49.636;12.164;2023-07-24T15:21:06;25.23;57.04
68248;SHT30;55064;49.636;12.164;2023-07-24T15:23:31;25.23;56.60
68248;SHT30;55064;49.636;12.164;2023-07-24T15:25:58;25.24;56.81